sensor_id;sensor_type;location;lat;lon;timestamp;pressure;altitude;pressure_sealevel;temperature;humidity
51781;BME280;37844;57.126;24.288;2023-04-01T00:02:02;99879.97;;;3.61;100.00
51781;BME280;37844;57.126;24.288;2023-04-01T00:04:46;99880.13;;;3.67;100.00
51781;BME280;37844;57.126;24.288;2023-04-01T00:07:30;99880.97;;;3.68;100.00
51781;BME280;37844;57.126;24.288;2023-04-01T00:10:15;99879.88;;;3.58;100.00
51781;BME280;37844;57.126;24.288;2023-04-01T00:12:59;99886.78;;;3.62;100.00
51781;BME280;37844;57.126;24.288;2023-04-01T00:15:43;99891.09;;;3.63;100.00
51781;BME280;37844;57.126;24.288;2023-04-01T00:18:27;99891.56;;;3.50;100.00
51781;BME280;37844;57.126;24.288;2023-04-01T00:21:11;99893.31;;;3.52;100.00
51781;BME280;37844;57.126;24.288;2023-04-01T00:23:55;99901.31;;;3.65;100.00
51781;BME280;37844;57.126;24.288;2023-04-01T00:26:39;99899.16;;;3.48;100.00
51781;BME280;37844;57.126;24.288;2023-04-01T00:29:25;99901.16;;;3.58;100.00
51781;BME280;37844;57.126;24.288;2023-04-01T00:32:12;99897.91;;;3.64;100.00
51781;BME280;37844;57.126;24.288;2023-04-01T00:34:56;99901.38;;;3.68;100.00
51781;BME280;37844;57.126;24.288;2023-04-01T00:37:43;99900.63;;;3.72;100.00
51781;BME280;37844;57.126;24.288;2023-04-01T00:40:28;99893.72;;;3.68;100.00
51781;BME280;37844;57.126;24.288;2023-04-01T00:43:14;99898.94;;;3.72;100.00
51781;BME280;37844;57.126;24.288;2023-04-01T00:45:58;99895.66;;;3.76;100.00
51781;BME280;37844;57.126;24.288;2023-04-01T00:48:44;99893.19;;;3.79;100.00
51781;BME280;37844;57.126;24.288;2023-04-01T00:51:28;99894.50;;;3.64;100.00
51781;BME280;37844;57.126;24.288;2023-04-01T00:54:13;99899.34;;;3.56;100.00
51781;BME280;37844;57.126;24.288;2023-04-01T00:56:59;99896.44;;;3.42;100.00
51781;BME280;37844;57.126;24.288;2023-04-01T00:59:45;99882.16;;;3.47;100.00
51781;BME280;37844;57.126;24.288;2023-04-01T01:02:31;99878.16;;;3.57;100.00
51781;BME280;37844;57.126;24.288;2023-04-01T01:05:16;99897.75;;;3.59;100.00
51781;BME280;37844;57.126;24.288;2023-04-01T01:10:55;99897.00;;;3.32;100.00
51781;BME280;37844;57.126;24.288;2023-04-01T01:16:30;99889.84;;;3.18;100.00
51781;BME280;37844;57.126;24.288;2023-04-01T01:19:21;99888.41;;;3.28;100.00
51781;BME280;37844;57.126;24.288;2023-04-01T01:28:08;99890.97;;;3.60;100.00
51781;BME280;37844;57.126;24.288;2023-04-01T01:36:52;99887.78;;;3.67;100.00
51781;BME280;37844;57.126;24.288;2023-04-01T01:39:37;99890.25;;;3.64;100.00
51781;BME280;37844;57.126;24.288;2023-04-01T01:42:23;99897.06;;;3.65;100.00
51781;BME280;37844;57.126;24.288;2023-04-01T01:45:16;99887.75;;;3.66;100.00
51781;BME280;37844;57.126;24.288;2023-04-01T01:48:02;99890.91;;;3.57;100.00
51781;BME280;37844;57.126;24.288;2023-04-01T01:50:48;99894.31;;;3.57;100.00
51781;BME280;37844;57.126;24.288;2023-04-01T01:53:45;99892.50;;;3.53;100.00
51781;BME280;37844;57.126;24.288;2023-04-01T01:56:30;99896.78;;;3.54;100.00
51781;BME280;37844;57.126;24.288;2023-04-01T01:59:14;99897.34;;;3.44;100.00
51781;BME280;37844;57.126;24.288;2023-04-01T02:01:59;99898.25;;;3.46;100.00
51781;BME280;37844;57.126;24.288;2023-04-01T02:04:44;99893.84;;;3.40;100.00
51781;BME280;37844;57.126;24.288;2023-04-01T02:07:31;99899.19;;;3.50;100.00
51781;BME280;37844;57.126;24.288;2023-04-01T02:10:16;99893.31;;;3.52;100.00
51781;BME280;37844;57.126;24.288;2023-04-01T02:13:01;99905.66;;;3.38;100.00
51781;BME280;37844;57.126;24.288;2023-04-01T02:15:49;99902.28;;;3.38;100.00
51781;BME280;37844;57.126;24.288;2023-04-01T02:18:35;99908.06;;;3.32;100.00
51781;BME280;37844;57.126;24.288;2023-04-01T02:21:21;99915.84;;;3.37;100.00
51781;BME280;37844;57.126;24.288;2023-04-01T02:24:08;99913.50;;;3.45;100.00
51781;BME280;37844;57.126;24.288;2023-04-01T02:26:53;99907.44;;;3.41;100.00
51781;BME280;37844;57.126;24.288;2023-04-01T02:29:38;99911.03;;;3.48;100.00
51781;BME280;37844;57.126;24.288;2023-04-01T02:32:22;99911.75;;;3.44;100.00
51781;BME280;37844;57.126;24.288;2023-04-01T02:35:07;99900.72;;;3.43;100.00
51781;BME280;37844;57.126;24.288;2023-04-01T02:37:53;99898.22;;;3.45;100.00
51781;BME280;37844;57.126;24.288;2023-04-01T02:40:47;99901.50;;;3.40;100.00
51781;BME280;37844;57.126;24.288;2023-04-01T02:43:33;99898.81;;;3.36;100.00
51781;BME280;37844;57.126;24.288;2023-04-01T02:46:17;99895.63;;;3.43;100.00
51781;BME280;37844;57.126;24.288;2023-04-01T02:49:01;99902.78;;;3.26;100.00
51781;BME280;37844;57.126;24.288;2023-04-01T02:51:44;99909.69;;;3.30;100.00
51781;BME280;37844;57.126;24.288;2023-04-01T02:54:29;99899.88;;;3.14;100.00
51781;BME280;37844;57.126;24.288;2023-04-01T02:57:13;99905.06;;;3.17;100.00
51781;BME280;37844;57.126;24.288;2023-04-01T02:59:57;99910.09;;;3.15;100.00
51781;BME280;37844;57.126;24.288;2023-04-01T03:02:41;99913.47;;;3.14;100.00
51781;BME280;37844;57.126;24.288;2023-04-01T03:05:25;99912.75;;;3.18;100.00
51781;BME280;37844;57.126;24.288;2023-04-01T03:08:09;99915.09;;;3.11;100.00
51781;BME280;37844;57.126;24.288;2023-04-01T03:10:53;99925.50;;;2.91;100.00
51781;BME280;37844;57.126;24.288;2023-04-01T03:13:37;99927.78;;;2.82;100.00
51781;BME280;37844;57.126;24.288;2023-04-01T03:16:21;99929.06;;;2.96;100.00
51781;BME280;37844;57.126;24.288;2023-04-01T03:19:04;99927.47;;;3.00;100.00
51781;BME280;37844;57.126;24.288;2023-04-01T03:21:49;99931.25;;;3.13;100.00
51781;BME280;37844;57.126;24.288;2023-04-01T03:24:33;99931.53;;;3.22;100.00
51781;BME280;37844;57.126;24.288;2023-04-01T03:27:17;99938.38;;;3.25;100.00
51781;BME280;37844;57.126;24.288;2023-04-01T03:30:02;99935.06;;;3.27;100.00
51781;BME280;37844;57.126;24.288;2023-04-01T03:32:46;99935.31;;;3.35;100.00
51781;BME280;37844;57.126;24.288;2023-04-01T03:35:29;99943.59;;;3.28;100.00
51781;BME280;37844;57.126;24.288;2023-04-01T03:38:13;99940.47;;;3.38;100.00
51781;BME280;37844;57.126;24.288;2023-04-01T03:40:59;99940.84;;;3.22;100.00
51781;BME280;37844;57.126;24.288;2023-04-01T03:43:43;99939.00;;;3.16;100.00
51781;BME280;37844;57.126;24.288;2023-04-01T03:46:27;99940.97;;;3.26;100.00
51781;BME280;37844;57.126;24.288;2023-04-01T03:49:11;99935.75;;;3.22;100.00
51781;BME280;37844;57.126;24.288;2023-04-01T03:51:55;99943.97;;;3.13;100.00
51781;BME280;37844;57.126;24.288;2023-04-01T03:54:39;99948.50;;;3.22;100.00
51781;BME280;37844;57.126;24.288;2023-04-01T03:57:23;99956.19;;;3.23;100.00
51781;BME280;37844;57.126;24.288;2023-04-01T04:00:07;99962.19;;;3.25;100.00
51781;BME280;37844;57.126;24.288;2023-04-01T04:02:52;99962.06;;;3.21;100.00
51781;BME280;37844;57.126;24.288;2023-04-01T04:05:36;99965.41;;;3.19;100.00
51781;BME280;37844;57.126;24.288;2023-04-01T04:08:19;99967.28;;;3.25;100.00
51781;BME280;37844;57.126;24.288;2023-04-01T04:11:05;99963.84;;;3.25;100.00
51781;BME280;37844;57.126;24.288;2023-04-01T04:13:49;99977.69;;;3.33;100.00
51781;BME280;37844;57.126;24.288;2023-04-01T04:16:34;99978.41;;;3.29;100.00
51781;BME280;37844;57.126;24.288;2023-04-01T04:19:20;99982.66;;;3.28;100.00
51781;BME280;37844;57.126;24.288;2023-04-01T04:22:04;99984.97;;;3.21;100.00
51781;BME280;37844;57.126;24.288;2023-04-01T04:24:47;99980.69;;;3.19;100.00
51781;BME280;37844;57.126;24.288;2023-04-01T04:27:32;99973.88;;;3.18;100.00
51781;BME280;37844;57.126;24.288;2023-04-01T04:30:17;99976.94;;;3.08;100.00
51781;BME280;37844;57.126;24.288;2023-04-01T04:33:01;99981.31;;;3.12;100.00
51781;BME280;37844;57.126;24.288;2023-04-01T04:35:45;99979.03;;;3.22;100.00
51781;BME280;37844;57.126;24.288;2023-04-01T04:38:29;99991.41;;;3.09;100.00
51781;BME280;37844;57.126;24.288;2023-04-01T04:41:13;99981.94;;;3.05;100.00
51781;BME280;37844;57.126;24.288;2023-04-01T04:43:58;99985.53;;;3.12;100.00
51781;BME280;37844;57.126;24.288;2023-04-01T04:46:42;99990.16;;;3.24;100.00
51781;BME280;37844;57.126;24.288;2023-04-01T04:49:26;99988.19;;;3.15;100.00
51781;BME280;37844;57.126;24.288;2023-04-01T04:52:10;99998.72;;;3.26;100.00
51781;BME280;37844;57.126;24.288;2023-04-01T04:54:54;100001.41;;;3.32;100.00
51781;BME280;37844;57.126;24.288;2023-04-01T04:57:38;99999.75;;;3.32;100.00
51781;BME280;37844;57.126;24.288;2023-04-01T05:00:22;99998.00;;;3.31;100.00
51781;BME280;37844;57.126;24.288;2023-04-01T05:03:06;99997.72;;;3.22;100.00
51781;BME280;37844;57.126;24.288;2023-04-01T05:05:50;99998.50;;;3.19;100.00
51781;BME280;37844;57.126;24.288;2023-04-01T05:08:35;100000.41;;;3.25;100.00
51781;BME280;37844;57.126;24.288;2023-04-01T05:11:19;100001.03;;;3.18;100.00
51781;BME280;37844;57.126;24.288;2023-04-01T05:14:03;100002.19;;;3.29;100.00
51781;BME280;37844;57.126;24.288;2023-04-01T05:16:47;100008.91;;;3.26;100.00
51781;BME280;37844;57.126;24.288;2023-04-01T05:19:32;100001.75;;;3.14;100.00
51781;BME280;37844;57.126;24.288;2023-04-01T05:22:16;100006.16;;;3.19;100.00
51781;BME280;37844;57.126;24.288;2023-04-01T05:25:00;100003.25;;;3.36;100.00
51781;BME280;37844;57.126;24.288;2023-04-01T05:27:44;100005.84;;;3.37;100.00
51781;BME280;37844;57.126;24.288;2023-04-01T05:30:28;100005.50;;;3.25;100.00
51781;BME280;37844;57.126;24.288;2023-04-01T05:33:13;100010.59;;;3.25;100.00
51781;BME280;37844;57.126;24.288;2023-04-01T05:35:57;100014.91;;;3.28;100.00
51781;BME280;37844;57.126;24.288;2023-04-01T05:38:48;100013.16;;;3.27;100.00
51781;BME280;37844;57.126;24.288;2023-04-01T05:41:34;100012.78;;;3.14;100.00
51781;BME280;37844;57.126;24.288;2023-04-01T05:44:18;100017.81;;;3.13;100.00
51781;BME280;37844;57.126;24.288;2023-04-01T05:47:03;100017.47;;;3.29;100.00
51781;BME280;37844;57.126;24.288;2023-04-01T05:49:47;100024.06;;;3.23;100.00
51781;BME280;37844;57.126;24.288;2023-04-01T05:52:31;100032.63;;;3.25;100.00
51781;BME280;37844;57.126;24.288;2023-04-01T05:55:15;100038.84;;;3.34;100.00
51781;BME280;37844;57.126;24.288;2023-04-01T05:57:59;100039.59;;;3.30;100.00
51781;BME280;37844;57.126;24.288;2023-04-01T06:00:43;100029.56;;;3.35;100.00
51781;BME280;37844;57.126;24.288;2023-04-01T06:03:26;100033.72;;;3.33;100.00
51781;BME280;37844;57.126;24.288;2023-04-01T06:06:23;100044.78;;;3.33;100.00
51781;BME280;37844;57.126;24.288;2023-04-01T06:09:12;100044.06;;;3.37;100.00
51781;BME280;37844;57.126;24.288;2023-04-01T06:18:11;100039.09;;;3.42;100.00
51781;BME280;37844;57.126;24.288;2023-04-01T06:21:04;100045.97;;;3.45;100.00
51781;BME280;37844;57.126;24.288;2023-04-01T06:26:39;100048.38;;;3.40;100.00
51781;BME280;37844;57.126;24.288;2023-04-01T06:38:06;100059.84;;;3.54;100.00
51781;BME280;37844;57.126;24.288;2023-04-01T06:58:11;100085.00;;;2.91;100.00
51781;BME280;37844;57.126;24.288;2023-04-01T07:00:57;100083.00;;;3.08;100.00
51781;BME280;37844;57.126;24.288;2023-04-01T07:03:44;100074.97;;;3.21;100.00
51781;BME280;37844;57.126;24.288;2023-04-01T07:06:39;100078.81;;;3.35;100.00
51781;BME280;37844;57.126;24.288;2023-04-01T07:09:30;100084.03;;;3.40;100.00
51781;BME280;37844;57.126;24.288;2023-04-01T07:12:17;100083.88;;;3.63;100.00
51781;BME280;37844;57.126;24.288;2023-04-01T07:15:16;100085.69;;;3.67;100.00
51781;BME280;37844;57.126;24.288;2023-04-01T07:18:03;100090.50;;;3.57;100.00
51781;BME280;37844;57.126;24.288;2023-04-01T07:20:49;100091.66;;;3.67;100.00
51781;BME280;37844;57.126;24.288;2023-04-01T07:23:38;100096.81;;;3.42;100.00
51781;BME280;37844;57.126;24.288;2023-04-01T07:26:24;100086.53;;;3.38;100.00
51781;BME280;37844;57.126;24.288;2023-04-01T07:29:12;100089.78;;;3.61;100.00
51781;BME280;37844;57.126;24.288;2023-04-01T07:41:00;100109.69;;;3.73;100.00
51781;BME280;37844;57.126;24.288;2023-04-01T07:46:53;100111.41;;;3.74;100.00
51781;BME280;37844;57.126;24.288;2023-04-01T07:53:13;100108.84;;;4.03;100.00
51781;BME280;37844;57.126;24.288;2023-04-01T08:07:13;100124.22;;;4.35;100.00
51781;BME280;37844;57.126;24.288;2023-04-01T08:09:59;100119.34;;;4.42;100.00
51781;BME280;37844;57.126;24.288;2023-04-01T08:18:47;100133.34;;;4.57;100.00
51781;BME280;37844;57.126;24.288;2023-04-01T08:21:45;100135.03;;;4.26;100.00
51781;BME280;37844;57.126;24.288;2023-04-01T08:24:39;100141.00;;;4.27;100.00
51781;BME280;37844;57.126;24.288;2023-04-01T08:27:30;100139.09;;;3.91;100.00
51781;BME280;37844;57.126;24.288;2023-04-01T08:30:26;100146.72;;;3.89;100.00
51781;BME280;37844;57.126;24.288;2023-04-01T08:33:25;100137.94;;;4.08;100.00
51781;BME280;37844;57.126;24.288;2023-04-01T08:36:17;100143.25;;;4.16;100.00
51781;BME280;37844;57.126;24.288;2023-04-01T08:50:42;100153.66;;;4.23;100.00
51781;BME280;37844;57.126;24.288;2023-04-01T08:56:39;100168.13;;;4.53;100.00
51781;BME280;37844;57.126;24.288;2023-04-01T09:02:31;100167.50;;;4.62;100.00
51781;BME280;37844;57.126;24.288;2023-04-01T09:05:46;100164.28;;;4.37;100.00
51781;BME280;37844;57.126;24.288;2023-04-01T09:14:07;100185.06;;;3.94;100.00
51781;BME280;37844;57.126;24.288;2023-04-01T09:34:21;100209.13;;;3.75;100.00
51781;BME280;37844;57.126;24.288;2023-04-01T09:40:16;100216.44;;;3.91;100.00
51781;BME280;37844;57.126;24.288;2023-04-01T10:06:49;100240.94;;;3.60;100.00
51781;BME280;37844;57.126;24.288;2023-04-01T10:39:07;100267.41;;;4.17;100.00
51781;BME280;37844;57.126;24.288;2023-04-01T10:47:41;100268.16;;;4.41;100.00
51781;BME280;37844;57.126;24.288;2023-04-01T10:53:38;100269.91;;;4.15;100.00
51781;BME280;37844;57.126;24.288;2023-04-01T10:56:32;100280.13;;;4.15;100.00
51781;BME280;37844;57.126;24.288;2023-04-01T11:08:18;100284.47;;;4.19;100.00
51781;BME280;37844;57.126;24.288;2023-04-01T11:22:39;100303.13;;;3.91;100.00
51781;BME280;37844;57.126;24.288;2023-04-01T11:40:45;100292.16;;;4.48;100.00
51781;BME280;37844;57.126;24.288;2023-04-01T11:43:39;100297.81;;;4.66;100.00
51781;BME280;37844;57.126;24.288;2023-04-01T11:46:31;100303.91;;;4.72;100.00
51781;BME280;37844;57.126;24.288;2023-04-01T11:52:11;100319.88;;;4.93;100.00
51781;BME280;37844;57.126;24.288;2023-04-01T12:12:36;100313.84;;;4.62;100.00
51781;BME280;37844;57.126;24.288;2023-04-01T12:15:29;100325.19;;;4.72;100.00
51781;BME280;37844;57.126;24.288;2023-04-01T12:18:17;100321.38;;;4.58;100.00
51781;BME280;37844;57.126;24.288;2023-04-01T12:21:23;100320.72;;;4.63;100.00
51781;BME280;37844;57.126;24.288;2023-04-01T12:29:44;100323.56;;;4.74;100.00
51781;BME280;37844;57.126;24.288;2023-04-01T12:38:13;100334.28;;;4.62;100.00
51781;BME280;37844;57.126;24.288;2023-04-01T12:41:14;100338.16;;;4.78;100.00
51781;BME280;37844;57.126;24.288;2023-04-01T12:50:23;100350.63;;;4.40;100.00
51781;BME280;37844;57.126;24.288;2023-04-01T12:56:02;100355.78;;;4.42;100.00
51781;BME280;37844;57.126;24.288;2023-04-01T13:16:31;100379.94;;;5.09;100.00
51781;BME280;37844;57.126;24.288;2023-04-01T13:19:21;100391.16;;;4.85;100.00
51781;BME280;37844;57.126;24.288;2023-04-01T13:22:11;100394.03;;;4.96;100.00
51781;BME280;37844;57.126;24.288;2023-04-01T13:28:47;100404.34;;;4.99;100.00
51781;BME280;37844;57.126;24.288;2023-04-01T13:40:26;100420.59;;;5.01;100.00
51781;BME280;37844;57.126;24.288;2023-04-01T13:43:15;100416.28;;;5.00;100.00
51781;BME280;37844;57.126;24.288;2023-04-01T14:06:20;100443.19;;;4.36;100.00
51781;BME280;37844;57.126;24.288;2023-04-01T14:09:17;100445.84;;;4.14;100.00
51781;BME280;37844;57.126;24.288;2023-04-01T14:26:49;100457.94;;;4.45;100.00
51781;BME280;37844;57.126;24.288;2023-04-01T14:35:18;100468.56;;;4.57;100.00
51781;BME280;37844;57.126;24.288;2023-04-01T14:38:11;100473.88;;;4.38;100.00
51781;BME280;37844;57.126;24.288;2023-04-01T14:41:12;100482.16;;;4.31;100.00
51781;BME280;37844;57.126;24.288;2023-04-01T14:47:04;100485.72;;;4.36;100.00
51781;BME280;37844;57.126;24.288;2023-04-01T14:50:29;100488.06;;;4.30;100.00
51781;BME280;37844;57.126;24.288;2023-04-01T14:55:57;100499.53;;;4.17;100.00
51781;BME280;37844;57.126;24.288;2023-04-01T14:58:45;100504.28;;;4.32;100.00
51781;BME280;37844;57.126;24.288;2023-04-01T15:20:13;100528.34;;;4.14;100.00
51781;BME280;37844;57.126;24.288;2023-04-01T15:23:02;100525.44;;;4.29;100.00
51781;BME280;37844;57.126;24.288;2023-04-01T15:25:58;100533.19;;;4.31;100.00
51781;BME280;37844;57.126;24.288;2023-04-01T15:37:30;100554.41;;;4.30;100.00
51781;BME280;37844;57.126;24.288;2023-04-01T15:40:24;100553.84;;;4.14;100.00
51781;BME280;37844;57.126;24.288;2023-04-01T15:43:33;100562.34;;;4.13;100.00
51781;BME280;37844;57.126;24.288;2023-04-01T15:52:39;100566.75;;;3.95;100.00
51781;BME280;37844;57.126;24.288;2023-04-01T15:55:31;100575.75;;;3.85;100.00
51781;BME280;37844;57.126;24.288;2023-04-01T15:58:24;100585.13;;;3.86;100.00
51781;BME280;37844;57.126;24.288;2023-04-01T16:01:24;100586.31;;;3.94;100.00
51781;BME280;37844;57.126;24.288;2023-04-01T16:13:24;100606.78;;;3.75;100.00
51781;BME280;37844;57.126;24.288;2023-04-01T16:19:27;100624.16;;;3.63;100.00
51781;BME280;37844;57.126;24.288;2023-04-01T16:25:19;100643.09;;;3.47;100.00
51781;BME280;37844;57.126;24.288;2023-04-01T16:36:30;100665.03;;;3.43;100.00
51781;BME280;37844;57.126;24.288;2023-04-01T16:47:56;100681.25;;;3.24;100.00
51781;BME280;37844;57.126;24.288;2023-04-01T16:50:55;100675.16;;;3.21;100.00
51781;BME280;37844;57.126;24.288;2023-04-01T16:53:49;100685.75;;;3.10;100.00
51781;BME280;37844;57.126;24.288;2023-04-01T16:56:39;100682.41;;;3.11;100.00
51781;BME280;37844;57.126;24.288;2023-04-01T16:59:27;100687.44;;;3.10;100.00
51781;BME280;37844;57.126;24.288;2023-04-01T17:02:14;100695.94;;;3.10;100.00
51781;BME280;37844;57.126;24.288;2023-04-01T17:05:08;100696.28;;;2.98;100.00
51781;BME280;37844;57.126;24.288;2023-04-01T17:10:43;100708.63;;;2.89;100.00
51781;BME280;37844;57.126;24.288;2023-04-01T17:13:38;100716.66;;;2.98;100.00
51781;BME280;37844;57.126;24.288;2023-04-01T17:22:17;100734.06;;;2.89;100.00
51781;BME280;37844;57.126;24.288;2023-04-01T17:31:07;100758.50;;;2.47;100.00
51781;BME280;37844;57.126;24.288;2023-04-01T17:34:16;100758.88;;;2.37;100.00
51781;BME280;37844;57.126;24.288;2023-04-01T17:45:44;100776.97;;;2.80;100.00
51781;BME280;37844;57.126;24.288;2023-04-01T17:48:35;100770.84;;;2.76;100.00
51781;BME280;37844;57.126;24.288;2023-04-01T17:51:28;100777.16;;;2.85;100.00
51781;BME280;37844;57.126;24.288;2023-04-01T17:57:13;100778.50;;;2.96;100.00
51781;BME280;37844;57.126;24.288;2023-04-01T18:22:43;100806.28;;;2.72;100.00
51781;BME280;37844;57.126;24.288;2023-04-01T18:25:29;100804.56;;;2.71;100.00
51781;BME280;37844;57.126;24.288;2023-04-01T18:28:32;100807.53;;;2.62;100.00
51781;BME280;37844;57.126;24.288;2023-04-01T18:31:19;100811.59;;;2.59;100.00
51781;BME280;37844;57.126;24.288;2023-04-01T18:37:01;100813.28;;;2.58;100.00
51781;BME280;37844;57.126;24.288;2023-04-01T18:39:50;100822.09;;;2.47;100.00
51781;BME280;37844;57.126;24.288;2023-04-01T18:45:33;100826.69;;;2.54;100.00
51781;BME280;37844;57.126;24.288;2023-04-01T18:51:27;100824.28;;;2.39;100.00
51781;BME280;37844;57.126;24.288;2023-04-01T18:54:24;100835.00;;;2.51;100.00
51781;BME280;37844;57.126;24.288;2023-04-01T19:00:03;100846.53;;;2.43;100.00
51781;BME280;37844;57.126;24.288;2023-04-01T19:02:50;100851.91;;;2.31;100.00
51781;BME280;37844;57.126;24.288;2023-04-01T19:05:39;100858.94;;;2.37;100.00
51781;BME280;37844;57.126;24.288;2023-04-01T19:08:33;100796.16;;;2.00;100.00
51781;BME280;37844;57.126;24.288;2023-04-01T19:11:33;100863.69;;;2.47;100.00
51781;BME280;37844;57.126;24.288;2023-04-01T19:20:30;100861.91;;;2.46;100.00
51781;BME280;37844;57.126;24.288;2023-04-01T19:26:26;100874.66;;;2.28;100.00
51781;BME280;37844;57.126;24.288;2023-04-01T19:32:31;100882.28;;;2.46;100.00
51781;BME280;37844;57.126;24.288;2023-04-01T19:35:26;100883.44;;;2.35;100.00
51781;BME280;37844;57.126;24.288;2023-04-01T19:46:44;100896.72;;;2.29;100.00
51781;BME280;37844;57.126;24.288;2023-04-01T19:52:17;100898.84;;;2.38;100.00
51781;BME280;37844;57.126;24.288;2023-04-01T19:55:07;100904.16;;;2.43;100.00
51781;BME280;37844;57.126;24.288;2023-04-01T20:00:52;100907.16;;;2.52;100.00
51781;BME280;37844;57.126;24.288;2023-04-01T20:09:48;100919.28;;;2.40;100.00
51781;BME280;37844;57.126;24.288;2023-04-01T20:18:16;100912.56;;;2.42;100.00
51781;BME280;37844;57.126;24.288;2023-04-01T20:21:18;100921.25;;;2.45;100.00
51781;BME280;37844;57.126;24.288;2023-04-01T20:24:15;100919.97;;;2.37;100.00
51781;BME280;37844;57.126;24.288;2023-04-01T20:33:01;100934.16;;;2.32;100.00
51781;BME280;37844;57.126;24.288;2023-04-01T20:44:26;100945.38;;;2.36;100.00
51781;BME280;37844;57.126;24.288;2023-04-01T20:47:18;100948.09;;;2.22;100.00
51781;BME280;37844;57.126;24.288;2023-04-01T20:53:07;100949.72;;;2.38;100.00
51781;BME280;37844;57.126;24.288;2023-04-01T21:01:39;100954.19;;;2.42;100.00
51781;BME280;37844;57.126;24.288;2023-04-01T21:04:41;100958.78;;;2.49;100.00
51781;BME280;37844;57.126;24.288;2023-04-01T21:07:29;100962.22;;;2.51;100.00
51781;BME280;37844;57.126;24.288;2023-04-01T21:19:16;100968.38;;;2.21;100.00
51781;BME280;37844;57.126;24.288;2023-04-01T21:25:21;100984.38;;;2.36;100.00
51781;BME280;37844;57.126;24.288;2023-04-01T21:40:21;100994.69;;;2.21;100.00
51781;BME280;37844;57.126;24.288;2023-04-01T21:43:27;100999.59;;;2.18;100.00
51781;BME280;37844;57.126;24.288;2023-04-01T21:55:09;100994.06;;;2.09;100.00
51781;BME280;37844;57.126;24.288;2023-04-01T21:58:24;101000.88;;;2.10;100.00
51781;BME280;37844;57.126;24.288;2023-04-01T22:06:56;101012.97;;;1.98;100.00
51781;BME280;37844;57.126;24.288;2023-04-01T22:12:37;101015.41;;;2.12;100.00
51781;BME280;37844;57.126;24.288;2023-04-01T22:18:33;101024.97;;;2.00;100.00
51781;BME280;37844;57.126;24.288;2023-04-01T22:24:20;101025.09;;;2.03;100.00
51781;BME280;37844;57.126;24.288;2023-04-01T22:27:14;101022.41;;;2.00;100.00
51781;BME280;37844;57.126;24.288;2023-04-01T22:41:49;101040.22;;;2.00;100.00
51781;BME280;37844;57.126;24.288;2023-04-01T22:44:48;101047.94;;;2.02;100.00
51781;BME280;37844;57.126;24.288;2023-04-01T22:56:23;101056.56;;;2.05;100.00
51781;BME280;37844;57.126;24.288;2023-04-01T22:59:13;101061.03;;;2.09;100.00
51781;BME280;37844;57.126;24.288;2023-04-01T23:02:00;101065.31;;;2.10;100.00
51781;BME280;37844;57.126;24.288;2023-04-01T23:04:52;101065.41;;;2.12;100.00
51781;BME280;37844;57.126;24.288;2023-04-01T23:10:41;101068.44;;;2.21;100.00
51781;BME280;37844;57.126;24.288;2023-04-01T23:13:27;101067.72;;;2.24;100.00
51781;BME280;37844;57.126;24.288;2023-04-01T23:16:13;101077.88;;;2.24;100.00
51781;BME280;37844;57.126;24.288;2023-04-01T23:18:58;101077.31;;;2.29;100.00
51781;BME280;37844;57.126;24.288;2023-04-01T23:21:49;101086.00;;;2.17;100.00
51781;BME280;37844;57.126;24.288;2023-04-01T23:24:46;101080.09;;;2.18;100.00
51781;BME280;37844;57.126;24.288;2023-04-01T23:27:39;101076.13;;;2.23;100.00
51781;BME280;37844;57.126;24.288;2023-04-01T23:33:22;101091.69;;;1.96;100.00
51781;BME280;37844;57.126;24.288;2023-04-01T23:36:11;101099.00;;;2.06;100.00
51781;BME280;37844;57.126;24.288;2023-04-01T23:39:03;101093.38;;;2.12;100.00
51781;BME280;37844;57.126;24.288;2023-04-01T23:41:48;101097.00;;;2.01;100.00
51781;BME280;37844;57.126;24.288;2023-04-01T23:44:34;101100.81;;;1.93;100.00
51781;BME280;37844;57.126;24.288;2023-04-01T23:47:23;101101.44;;;1.88;100.00
51781;BME280;37844;57.126;24.288;2023-04-01T23:50:18;101108.66;;;1.81;100.00
51781;BME280;37844;57.126;24.288;2023-04-01T23:53:04;101096.16;;;1.69;100.00
51781;BME280;37844;57.126;24.288;2023-04-01T23:55:54;101106.41;;;1.70;100.00
51781;BME280;37844;57.126;24.288;2023-04-01T23:58:46;101106.00;;;1.63;100.00
